Weather at Sofia Airport

Public forecast

Using degrees Celsius for public forecast. Weather courtesy of forecast.io.

Current aviation weather report (METAR) for Sofia Airport

Retrieved 2022/07/01 01:00 UTC (9 minutes ago):

LBSF 010100Z AUTO 17004KT 120V220 9999 NCD 18/14 Q1017 NOSIG

Aviation forecast (TAF) for Sofia Airport

Retrieved 2022-07-01 00:18 UTC (51 minutes ago):

TAF LBSF 302300Z 0100/0124 VRB04KT CAVOK BECMG 0109/0111 08010KT BECMG 0121/0123 VRB04KT